Crestline, California
Current Conditions -  °F | °C
As of 8:51 AM on Sunday 21 Dec 2014 (Local Time) from KSBD Reporting Station
Overcast Overcast  
Wind Chill: 48°   Ceiling: 20000
Heat Index: 48°   Visibility: 10mi
Dew Point: 45°   Wind: 0mph
Humidity: 87%   Direction: NA
Pressure: 30.17"   Gusts: NA
Location:  34.24°N, 117.28°W
Report Text: KSBD 211651Z 00000KT 10SM OVC200 09/07 A3017
Loading
Personal Weather Stations






























Interactive Weather Map New forecast layout! Learn more

10-Day Weather Forecast

Advertisements
Track Severe Weather on mobile